sensor_id;sensor_type;location;lat;lon;timestamp;P1;durP1;ratioP1;P2;durP2;ratioP2
12848;SDS011;6493;50.928;7.172;2022-08-14T00:00:59;2.17;;;1.20;;
12848;SDS011;6493;50.928;7.172;2022-08-14T00:06:10;1.50;;;1.40;;
12848;SDS011;6493;50.928;7.172;2022-08-14T00:11:31;1.87;;;1.67;;
12848;SDS011;6493;50.928;7.172;2022-08-14T00:16:35;1.70;;;1.60;;
12848;SDS011;6493;50.928;7.172;2022-08-14T00:21:45;1.53;;;1.17;;
12848;SDS011;6493;50.928;7.172;2022-08-14T00:26:52;1.53;;;1.43;;
12848;SDS011;6493;50.928;7.172;2022-08-14T00:31:56;1.40;;;1.30;;
12848;SDS011;6493;50.928;7.172;2022-08-14T00:37:00;1.50;;;1.40;;
12848;SDS011;6493;50.928;7.172;2022-08-14T00:42:07;1.43;;;1.33;;
12848;SDS011;6493;50.928;7.172;2022-08-14T00:47:31;1.50;;;1.40;;
12848;SDS011;6493;50.928;7.172;2022-08-14T00:52:46;1.83;;;1.60;;
12848;SDS011;6493;50.928;7.172;2022-08-14T00:57:54;1.60;;;1.50;;
12848;SDS011;6493;50.928;7.172;2022-08-14T01:03:12;2.00;;;1.90;;
12848;SDS011;6493;50.928;7.172;2022-08-14T01:08:18;1.97;;;1.80;;
12848;SDS011;6493;50.928;7.172;2022-08-14T01:13:45;1.97;;;1.87;;
12848;SDS011;6493;50.928;7.172;2022-08-14T01:19:01;4.13;;;1.87;;
12848;SDS011;6493;50.928;7.172;2022-08-14T01:24:25;1.80;;;1.70;;
12848;SDS011;6493;50.928;7.172;2022-08-14T01:29:35;1.60;;;1.50;;
12848;SDS011;6493;50.928;7.172;2022-08-14T01:34:58;2.23;;;2.10;;
12848;SDS011;6493;50.928;7.172;2022-08-14T01:40:24;2.83;;;2.20;;
12848;SDS011;6493;50.928;7.172;2022-08-14T01:45:43;2.93;;;2.00;;
12848;SDS011;6493;50.928;7.172;2022-08-14T01:51:07;2.27;;;2.13;;
12848;SDS011;6493;50.928;7.172;2022-08-14T01:56:23;3.00;;;2.23;;
12848;SDS011;6493;50.928;7.172;2022-08-14T02:01:40;2.27;;;2.00;;
12848;SDS011;6493;50.928;7.172;2022-08-14T02:06:59;2.00;;;1.90;;
12848;SDS011;6493;50.928;7.172;2022-08-14T02:12:08;2.47;;;2.27;;
12848;SDS011;6493;50.928;7.172;2022-08-14T02:17:20;2.33;;;2.13;;
12848;SDS011;6493;50.928;7.172;2022-08-14T02:22:24;2.83;;;2.63;;
12848;SDS011;6493;50.928;7.172;2022-08-14T02:27:35;2.10;;;2.00;;
12848;SDS011;6493;50.928;7.172;2022-08-14T02:33:03;2.43;;;2.33;;
12848;SDS011;6493;50.928;7.172;2022-08-14T02:38:08;2.07;;;1.97;;
12848;SDS011;6493;50.928;7.172;2022-08-14T02:43:14;1.37;;;1.27;;
12848;SDS011;6493;50.928;7.172;2022-08-14T02:48:23;1.73;;;1.63;;
12848;SDS011;6493;50.928;7.172;2022-08-14T02:53:56;1.40;;;1.30;;
12848;SDS011;6493;50.928;7.172;2022-08-14T02:59:04;1.53;;;1.43;;
12848;SDS011;6493;50.928;7.172;2022-08-14T03:04:10;1.40;;;1.30;;
12848;SDS011;6493;50.928;7.172;2022-08-14T03:09:14;1.57;;;1.47;;
12848;SDS011;6493;50.928;7.172;2022-08-14T03:14:21;1.40;;;1.30;;
12848;SDS011;6493;50.928;7.172;2022-08-14T03:19:28;1.07;;;1.07;;
12848;SDS011;6493;50.928;7.172;2022-08-14T03:24:32;1.40;;;1.30;;
12848;SDS011;6493;50.928;7.172;2022-08-14T03:29:41;1.40;;;1.30;;
12848;SDS011;6493;50.928;7.172;2022-08-14T03:34:44;1.30;;;1.20;;
12848;SDS011;6493;50.928;7.172;2022-08-14T03:39:56;1.30;;;1.20;;
12848;SDS011;6493;50.928;7.172;2022-08-14T03:45:02;2.00;;;1.10;;
12848;SDS011;6493;50.928;7.172;2022-08-14T03:50:27;1.13;;;1.13;;
12848;SDS011;6493;50.928;7.172;2022-08-14T03:55:33;1.40;;;1.30;;
12848;SDS011;6493;50.928;7.172;2022-08-14T04:00:40;1.10;;;1.10;;
12848;SDS011;6493;50.928;7.172;2022-08-14T04:05:47;1.40;;;1.30;;
12848;SDS011;6493;50.928;7.172;2022-08-14T04:10:51;1.20;;;1.10;;
12848;SDS011;6493;50.928;7.172;2022-08-14T04:15:57;1.20;;;1.10;;
12848;SDS011;6493;50.928;7.172;2022-08-14T04:21:06;1.13;;;1.13;;
12848;SDS011;6493;50.928;7.172;2022-08-14T04:26:12;1.43;;;1.33;;
12848;SDS011;6493;50.928;7.172;2022-08-14T04:31:40;1.63;;;1.30;;
12848;SDS011;6493;50.928;7.172;2022-08-14T04:37:04;1.43;;;1.33;;
12848;SDS011;6493;50.928;7.172;2022-08-14T04:42:26;1.77;;;1.67;;
12848;SDS011;6493;50.928;7.172;2022-08-14T04:47:54;1.40;;;1.30;;
12848;SDS011;6493;50.928;7.172;2022-08-14T04:53:36;1.60;;;1.50;;
12848;SDS011;6493;50.928;7.172;2022-08-14T04:58:45;1.53;;;1.43;;
12848;SDS011;6493;50.928;7.172;2022-08-14T05:03:50;1.43;;;1.33;;
12848;SDS011;6493;50.928;7.172;2022-08-14T05:08:55;1.43;;;1.33;;
12848;SDS011;6493;50.928;7.172;2022-08-14T05:14:01;1.70;;;1.60;;
12848;SDS011;6493;50.928;7.172;2022-08-14T05:19:26;1.80;;;1.70;;
12848;SDS011;6493;50.928;7.172;2022-08-14T05:24:33;1.37;;;1.30;;
12848;SDS011;6493;50.928;7.172;2022-08-14T05:29:38;1.37;;;1.27;;
12848;SDS011;6493;50.928;7.172;2022-08-14T05:34:47;1.77;;;1.67;;
12848;SDS011;6493;50.928;7.172;2022-08-14T05:39:51;2.00;;;1.90;;
12848;SDS011;6493;50.928;7.172;2022-08-14T05:44:55;1.47;;;1.37;;
12848;SDS011;6493;50.928;7.172;2022-08-14T05:50:00;1.60;;;1.50;;
12848;SDS011;6493;50.928;7.172;2022-08-14T05:55:06;1.43;;;1.33;;
12848;SDS011;6493;50.928;7.172;2022-08-14T06:00:12;1.60;;;1.50;;
12848;SDS011;6493;50.928;7.172;2022-08-14T06:05:31;2.50;;;2.30;;
12848;SDS011;6493;50.928;7.172;2022-08-14T06:10:39;1.83;;;1.73;;
12848;SDS011;6493;50.928;7.172;2022-08-14T06:15:43;2.50;;;2.30;;
12848;SDS011;6493;50.928;7.172;2022-08-14T06:20:49;2.30;;;2.10;;
12848;SDS011;6493;50.928;7.172;2022-08-14T06:25:58;2.10;;;2.00;;
12848;SDS011;6493;50.928;7.172;2022-08-14T06:31:01;2.27;;;2.07;;
12848;SDS011;6493;50.928;7.172;2022-08-14T06:36:07;3.07;;;2.87;;
12848;SDS011;6493;50.928;7.172;2022-08-14T06:41:12;2.00;;;1.90;;
12848;SDS011;6493;50.928;7.172;2022-08-14T06:46:21;1.67;;;1.57;;
12848;SDS011;6493;50.928;7.172;2022-08-14T06:51:39;2.20;;;2.10;;
12848;SDS011;6493;50.928;7.172;2022-08-14T06:56:50;2.10;;;2.00;;
12848;SDS011;6493;50.928;7.172;2022-08-14T07:01:57;5.00;;;2.00;;
12848;SDS011;6493;50.928;7.172;2022-08-14T07:07:21;2.33;;;2.13;;
12848;SDS011;6493;50.928;7.172;2022-08-14T07:12:29;2.20;;;2.10;;
12848;SDS011;6493;50.928;7.172;2022-08-14T07:17:53;2.53;;;2.33;;
12848;SDS011;6493;50.928;7.172;2022-08-14T07:23:00;2.57;;;2.37;;
12848;SDS011;6493;50.928;7.172;2022-08-14T07:28:10;2.87;;;2.67;;
12848;SDS011;6493;50.928;7.172;2022-08-14T07:33:23;2.60;;;2.43;;
12848;SDS011;6493;50.928;7.172;2022-08-14T07:38:32;2.43;;;2.23;;
12848;SDS011;6493;50.928;7.172;2022-08-14T07:43:39;2.93;;;2.00;;
12848;SDS011;6493;50.928;7.172;2022-08-14T07:48:45;2.07;;;1.90;;
12848;SDS011;6493;50.928;7.172;2022-08-14T07:53:50;2.17;;;2.07;;
12848;SDS011;6493;50.928;7.172;2022-08-14T07:58:58;1.60;;;1.50;;
12848;SDS011;6493;50.928;7.172;2022-08-14T08:04:02;1.63;;;1.53;;
12848;SDS011;6493;50.928;7.172;2022-08-14T08:09:21;1.50;;;1.40;;
12848;SDS011;6493;50.928;7.172;2022-08-14T08:14:33;1.70;;;1.60;;
12848;SDS011;6493;50.928;7.172;2022-08-14T08:19:57;1.80;;;1.70;;
12848;SDS011;6493;50.928;7.172;2022-08-14T08:25:02;1.40;;;1.30;;
12848;SDS011;6493;50.928;7.172;2022-08-14T08:30:14;1.70;;;1.60;;
12848;SDS011;6493;50.928;7.172;2022-08-14T08:35:19;1.50;;;1.40;;
12848;SDS011;6493;50.928;7.172;2022-08-14T08:40:26;1.80;;;1.70;;
12848;SDS011;6493;50.928;7.172;2022-08-14T08:45:34;1.87;;;1.77;;
12848;SDS011;6493;50.928;7.172;2022-08-14T08:50:38;1.73;;;1.63;;
12848;SDS011;6493;50.928;7.172;2022-08-14T08:55:43;1.97;;;1.77;;
12848;SDS011;6493;50.928;7.172;2022-08-14T09:00:48;1.50;;;1.40;;
12848;SDS011;6493;50.928;7.172;2022-08-14T09:05:56;1.60;;;1.50;;
12848;SDS011;6493;50.928;7.172;2022-08-14T09:11:05;1.73;;;1.63;;
12848;SDS011;6493;50.928;7.172;2022-08-14T09:16:22;1.40;;;1.30;;
12848;SDS011;6493;50.928;7.172;2022-08-14T09:21:27;1.40;;;1.30;;
12848;SDS011;6493;50.928;7.172;2022-08-14T09:26:34;1.67;;;1.57;;
12848;SDS011;6493;50.928;7.172;2022-08-14T09:31:42;1.27;;;1.27;;
12848;SDS011;6493;50.928;7.172;2022-08-14T09:37:04;1.37;;;1.33;;
12848;SDS011;6493;50.928;7.172;2022-08-14T09:42:32;1.50;;;1.40;;
12848;SDS011;6493;50.928;7.172;2022-08-14T09:47:52;0.97;;;0.97;;
12848;SDS011;6493;50.928;7.172;2022-08-14T09:52:57;1.17;;;1.07;;
12848;SDS011;6493;50.928;7.172;2022-08-14T09:58:08;1.00;;;0.90;;
12848;SDS011;6493;50.928;7.172;2022-08-14T10:03:23;1.10;;;1.10;;
12848;SDS011;6493;50.928;7.172;2022-08-14T10:08:43;1.73;;;1.30;;
12848;SDS011;6493;50.928;7.172;2022-08-14T10:13:55;1.30;;;1.20;;
12848;SDS011;6493;50.928;7.172;2022-08-14T10:19:00;2.10;;;1.63;;
12848;SDS011;6493;50.928;7.172;2022-08-14T10:24:08;1.07;;;1.07;;
12848;SDS011;6493;50.928;7.172;2022-08-14T10:29:28;0.90;;;0.90;;
12848;SDS011;6493;50.928;7.172;2022-08-14T10:34:34;1.43;;;1.33;;
12848;SDS011;6493;50.928;7.172;2022-08-14T10:39:39;1.40;;;1.30;;
12848;SDS011;6493;50.928;7.172;2022-08-14T10:45:14;2.37;;;1.40;;
12848;SDS011;6493;50.928;7.172;2022-08-14T10:50:29;1.10;;;1.10;;
12848;SDS011;6493;50.928;7.172;2022-08-14T10:55:34;1.10;;;1.10;;
12848;SDS011;6493;50.928;7.172;2022-08-14T11:00:54;1.30;;;1.30;;
12848;SDS011;6493;50.928;7.172;2022-08-14T11:06:09;1.40;;;1.30;;
12848;SDS011;6493;50.928;7.172;2022-08-14T11:11:21;1.30;;;1.20;;
12848;SDS011;6493;50.928;7.172;2022-08-14T11:16:39;1.40;;;1.30;;
12848;SDS011;6493;50.928;7.172;2022-08-14T11:21:54;1.40;;;1.30;;
12848;SDS011;6493;50.928;7.172;2022-08-14T11:27:01;1.40;;;1.30;;
12848;SDS011;6493;50.928;7.172;2022-08-14T11:32:07;1.03;;;1.03;;
12848;SDS011;6493;50.928;7.172;2022-08-14T11:37:11;0.90;;;0.90;;
12848;SDS011;6493;50.928;7.172;2022-08-14T11:42:28;1.30;;;1.20;;
12848;SDS011;6493;50.928;7.172;2022-08-14T11:47:54;2.10;;;1.50;;
12848;SDS011;6493;50.928;7.172;2022-08-14T11:53:19;1.33;;;1.23;;
12848;SDS011;6493;50.928;7.172;2022-08-14T11:58:24;1.30;;;1.20;;
12848;SDS011;6493;50.928;7.172;2022-08-14T12:03:38;1.30;;;1.20;;
12848;SDS011;6493;50.928;7.172;2022-08-14T12:08:54;1.30;;;1.20;;
12848;SDS011;6493;50.928;7.172;2022-08-14T12:14:05;1.07;;;1.00;;
12848;SDS011;6493;50.928;7.172;2022-08-14T12:19:30;1.50;;;1.40;;
12848;SDS011;6493;50.928;7.172;2022-08-14T12:25:10;1.30;;;1.20;;
12848;SDS011;6493;50.928;7.172;2022-08-14T12:30:24;1.53;;;1.43;;
12848;SDS011;6493;50.928;7.172;2022-08-14T12:35:40;1.20;;;1.20;;
12848;SDS011;6493;50.928;7.172;2022-08-14T12:40:46;1.40;;;1.30;;
12848;SDS011;6493;50.928;7.172;2022-08-14T12:45:52;1.47;;;1.37;;
12848;SDS011;6493;50.928;7.172;2022-08-14T12:50:59;1.43;;;1.33;;
12848;SDS011;6493;50.928;7.172;2022-08-14T12:56:03;1.50;;;1.40;;
12848;SDS011;6493;50.928;7.172;2022-08-14T13:01:28;1.33;;;1.30;;
12848;SDS011;6493;50.928;7.172;2022-08-14T13:06:54;1.00;;;1.00;;
12848;SDS011;6493;50.928;7.172;2022-08-14T13:11:58;1.60;;;1.50;;
12848;SDS011;6493;50.928;7.172;2022-08-14T13:17:26;1.40;;;1.30;;
12848;SDS011;6493;50.928;7.172;2022-08-14T13:22:40;0.90;;;0.90;;
12848;SDS011;6493;50.928;7.172;2022-08-14T13:27:47;1.20;;;1.10;;
12848;SDS011;6493;50.928;7.172;2022-08-14T13:32:55;1.47;;;1.37;;
12848;SDS011;6493;50.928;7.172;2022-08-14T13:38:03;1.30;;;1.20;;
12848;SDS011;6493;50.928;7.172;2022-08-14T13:43:14;1.40;;;1.30;;
12848;SDS011;6493;50.928;7.172;2022-08-14T13:48:19;1.40;;;1.30;;
12848;SDS011;6493;50.928;7.172;2022-08-14T13:53:37;1.40;;;1.20;;
12848;SDS011;6493;50.928;7.172;2022-08-14T13:59:06;1.00;;;1.00;;
12848;SDS011;6493;50.928;7.172;2022-08-14T14:04:14;1.20;;;1.20;;
12848;SDS011;6493;50.928;7.172;2022-08-14T14:09:25;1.10;;;1.10;;
12848;SDS011;6493;50.928;7.172;2022-08-14T14:14:49;1.27;;;1.27;;
12848;SDS011;6493;50.928;7.172;2022-08-14T14:19:55;1.13;;;1.13;;
12848;SDS011;6493;50.928;7.172;2022-08-14T14:25:05;0.90;;;0.90;;
12848;SDS011;6493;50.928;7.172;2022-08-14T14:30:10;1.00;;;1.00;;
12848;SDS011;6493;50.928;7.172;2022-08-14T14:35:35;1.20;;;1.10;;
12848;SDS011;6493;50.928;7.172;2022-08-14T14:40:43;1.20;;;1.20;;
12848;SDS011;6493;50.928;7.172;2022-08-14T14:46:01;0.90;;;0.90;;
12848;SDS011;6493;50.928;7.172;2022-08-14T14:51:10;0.80;;;0.80;;
12848;SDS011;6493;50.928;7.172;2022-08-14T14:56:18;1.00;;;1.00;;
12848;SDS011;6493;50.928;7.172;2022-08-14T15:01:43;0.80;;;0.80;;
12848;SDS011;6493;50.928;7.172;2022-08-14T15:06:51;0.80;;;0.80;;
12848;SDS011;6493;50.928;7.172;2022-08-14T15:11:56;0.90;;;0.90;;
12848;SDS011;6493;50.928;7.172;2022-08-14T15:16:59;0.70;;;0.70;;
12848;SDS011;6493;50.928;7.172;2022-08-14T15:22:03;0.70;;;0.70;;
12848;SDS011;6493;50.928;7.172;2022-08-14T15:27:12;0.90;;;0.90;;
12848;SDS011;6493;50.928;7.172;2022-08-14T15:32:27;0.80;;;0.80;;
12848;SDS011;6493;50.928;7.172;2022-08-14T15:37:32;1.13;;;1.00;;
12848;SDS011;6493;50.928;7.172;2022-08-14T15:42:44;0.60;;;0.60;;
12848;SDS011;6493;50.928;7.172;2022-08-14T15:47:50;0.90;;;0.90;;
12848;SDS011;6493;50.928;7.172;2022-08-14T15:52:54;0.80;;;0.80;;
12848;SDS011;6493;50.928;7.172;2022-08-14T15:57:59;0.50;;;0.50;;
12848;SDS011;6493;50.928;7.172;2022-08-14T16:03:08;0.60;;;0.60;;
12848;SDS011;6493;50.928;7.172;2022-08-14T16:08:15;0.70;;;0.70;;
12848;SDS011;6493;50.928;7.172;2022-08-14T16:13:32;1.03;;;1.03;;
12848;SDS011;6493;50.928;7.172;2022-08-14T16:18:44;0.90;;;0.90;;
12848;SDS011;6493;50.928;7.172;2022-08-14T16:23:49;1.03;;;1.00;;
12848;SDS011;6493;50.928;7.172;2022-08-14T16:28:56;1.13;;;1.03;;
12848;SDS011;6493;50.928;7.172;2022-08-14T16:34:05;1.00;;;1.00;;
12848;SDS011;6493;50.928;7.172;2022-08-14T16:39:29;0.90;;;0.90;;
12848;SDS011;6493;50.928;7.172;2022-08-14T16:44:35;0.90;;;0.90;;
12848;SDS011;6493;50.928;7.172;2022-08-14T16:49:42;0.87;;;0.87;;
12848;SDS011;6493;50.928;7.172;2022-08-14T16:55:07;0.93;;;0.93;;
12848;SDS011;6493;50.928;7.172;2022-08-14T17:00:24;0.80;;;0.80;;
12848;SDS011;6493;50.928;7.172;2022-08-14T17:05:43;1.10;;;1.00;;
12848;SDS011;6493;50.928;7.172;2022-08-14T17:10:58;1.10;;;1.00;;
12848;SDS011;6493;50.928;7.172;2022-08-14T17:16:13;0.80;;;0.80;;
12848;SDS011;6493;50.928;7.172;2022-08-14T17:21:27;0.70;;;0.70;;
12848;SDS011;6493;50.928;7.172;2022-08-14T17:26:34;0.80;;;0.80;;
12848;SDS011;6493;50.928;7.172;2022-08-14T17:31:45;0.80;;;0.80;;
12848;SDS011;6493;50.928;7.172;2022-08-14T17:37:21;0.97;;;0.97;;
12848;SDS011;6493;50.928;7.172;2022-08-14T17:42:46;0.60;;;0.60;;
12848;SDS011;6493;50.928;7.172;2022-08-14T17:47:56;0.80;;;0.80;;
12848;SDS011;6493;50.928;7.172;2022-08-14T17:53:00;0.70;;;0.70;;
12848;SDS011;6493;50.928;7.172;2022-08-14T17:58:13;0.87;;;0.87;;
12848;SDS011;6493;50.928;7.172;2022-08-14T18:03:24;1.00;;;0.73;;
12848;SDS011;6493;50.928;7.172;2022-08-14T18:08:48;0.80;;;0.80;;
12848;SDS011;6493;50.928;7.172;2022-08-14T18:13:57;0.70;;;0.70;;
12848;SDS011;6493;50.928;7.172;2022-08-14T18:19:04;0.83;;;0.83;;
12848;SDS011;6493;50.928;7.172;2022-08-14T18:24:08;0.70;;;0.60;;
12848;SDS011;6493;50.928;7.172;2022-08-14T18:29:31;0.50;;;0.50;;
12848;SDS011;6493;50.928;7.172;2022-08-14T18:34:44;0.70;;;0.70;;
12848;SDS011;6493;50.928;7.172;2022-08-14T18:39:52;0.60;;;0.60;;
12848;SDS011;6493;50.928;7.172;2022-08-14T18:45:06;0.83;;;0.83;;
12848;SDS011;6493;50.928;7.172;2022-08-14T18:50:20;0.63;;;0.63;;
12848;SDS011;6493;50.928;7.172;2022-08-14T18:55:38;0.67;;;0.67;;
12848;SDS011;6493;50.928;7.172;2022-08-14T19:00:56;0.70;;;0.70;;
12848;SDS011;6493;50.928;7.172;2022-08-14T19:06:02;0.70;;;0.70;;
12848;SDS011;6493;50.928;7.172;2022-08-14T19:16:51;0.80;;;0.80;;
12848;SDS011;6493;50.928;7.172;2022-08-14T19:21:58;0.77;;;0.77;;
12848;SDS011;6493;50.928;7.172;2022-08-14T19:27:15;0.70;;;0.70;;
12848;SDS011;6493;50.928;7.172;2022-08-14T19:32:32;0.80;;;0.80;;
12848;SDS011;6493;50.928;7.172;2022-08-14T19:37:45;1.00;;;0.80;;
12848;SDS011;6493;50.928;7.172;2022-08-14T19:42:53;0.80;;;0.80;;
12848;SDS011;6493;50.928;7.172;2022-08-14T19:48:00;0.73;;;0.73;;
12848;SDS011;6493;50.928;7.172;2022-08-14T19:53:08;1.27;;;0.70;;
12848;SDS011;6493;50.928;7.172;2022-08-14T19:58:19;0.70;;;0.70;;
12848;SDS011;6493;50.928;7.172;2022-08-14T20:03:39;0.83;;;0.83;;
12848;SDS011;6493;50.928;7.172;2022-08-14T20:09:03;0.90;;;0.90;;
12848;SDS011;6493;50.928;7.172;2022-08-14T20:14:27;0.93;;;0.93;;
12848;SDS011;6493;50.928;7.172;2022-08-14T20:19:32;0.80;;;0.80;;
12848;SDS011;6493;50.928;7.172;2022-08-14T20:24:44;0.80;;;0.80;;
12848;SDS011;6493;50.928;7.172;2022-08-14T20:29:59;0.77;;;0.77;;
12848;SDS011;6493;50.928;7.172;2022-08-14T20:35:32;0.90;;;0.90;;
12848;SDS011;6493;50.928;7.172;2022-08-14T20:40:41;0.87;;;0.87;;
12848;SDS011;6493;50.928;7.172;2022-08-14T20:45:51;1.00;;;0.90;;
12848;SDS011;6493;50.928;7.172;2022-08-14T20:50:55;0.70;;;0.70;;
12848;SDS011;6493;50.928;7.172;2022-08-14T20:56:02;1.27;;;0.70;;
12848;SDS011;6493;50.928;7.172;2022-08-14T21:01:32;0.60;;;0.60;;
12848;SDS011;6493;50.928;7.172;2022-08-14T21:06:39;0.60;;;0.60;;
12848;SDS011;6493;50.928;7.172;2022-08-14T21:12:03;0.73;;;0.73;;
12848;SDS011;6493;50.928;7.172;2022-08-14T21:17:28;0.97;;;0.83;;
12848;SDS011;6493;50.928;7.172;2022-08-14T21:22:38;0.80;;;0.80;;
12848;SDS011;6493;50.928;7.172;2022-08-14T21:27:46;0.77;;;0.77;;
12848;SDS011;6493;50.928;7.172;2022-08-14T21:33:02;0.73;;;0.73;;
12848;SDS011;6493;50.928;7.172;2022-08-14T21:38:10;1.07;;;0.90;;
12848;SDS011;6493;50.928;7.172;2022-08-14T21:43:20;0.80;;;0.80;;
12848;SDS011;6493;50.928;7.172;2022-08-14T21:48:27;0.83;;;0.80;;
12848;SDS011;6493;50.928;7.172;2022-08-14T21:53:34;0.77;;;0.77;;
12848;SDS011;6493;50.928;7.172;2022-08-14T21:58:59;0.70;;;0.70;;
12848;SDS011;6493;50.928;7.172;2022-08-14T22:04:07;1.00;;;1.00;;
12848;SDS011;6493;50.928;7.172;2022-08-14T22:09:31;0.80;;;0.80;;
12848;SDS011;6493;50.928;7.172;2022-08-14T22:14:37;0.80;;;0.80;;
12848;SDS011;6493;50.928;7.172;2022-08-14T22:19:46;0.80;;;0.80;;
12848;SDS011;6493;50.928;7.172;2022-08-14T22:24:57;0.90;;;0.90;;
12848;SDS011;6493;50.928;7.172;2022-08-14T22:30:03;0.83;;;0.83;;
12848;SDS011;6493;50.928;7.172;2022-08-14T22:35:14;0.83;;;0.80;;
12848;SDS011;6493;50.928;7.172;2022-08-14T22:40:18;0.87;;;0.87;;
12848;SDS011;6493;50.928;7.172;2022-08-14T22:45:42;0.87;;;0.87;;
12848;SDS011;6493;50.928;7.172;2022-08-14T22:50:57;0.70;;;0.70;;
12848;SDS011;6493;50.928;7.172;2022-08-14T22:56:02;0.80;;;0.80;;
12848;SDS011;6493;50.928;7.172;2022-08-14T23:01:24;0.70;;;0.70;;
12848;SDS011;6493;50.928;7.172;2022-08-14T23:06:51;0.80;;;0.80;;
12848;SDS011;6493;50.928;7.172;2022-08-14T23:12:06;0.90;;;0.90;;
12848;SDS011;6493;50.928;7.172;2022-08-14T23:17:30;0.90;;;0.90;;
12848;SDS011;6493;50.928;7.172;2022-08-14T23:22:43;0.77;;;0.77;;
12848;SDS011;6493;50.928;7.172;2022-08-14T23:27:48;0.70;;;0.70;;
12848;SDS011;6493;50.928;7.172;2022-08-14T23:33:04;0.90;;;0.90;;
12848;SDS011;6493;50.928;7.172;2022-08-14T23:38:10;0.70;;;0.70;;
12848;SDS011;6493;50.928;7.172;2022-08-14T23:43:31;0.80;;;0.80;;
12848;SDS011;6493;50.928;7.172;2022-08-14T23:48:36;0.93;;;0.93;;
12848;SDS011;6493;50.928;7.172;2022-08-14T23:53:49;0.90;;;0.70;;
12848;SDS011;6493;50.928;7.172;2022-08-14T23:58:53;0.70;;;0.70;;
